createdAt,value
2018-03-29T00:00:05.082Z,998.26
2018-03-29T00:01:26.698Z,998.31
2018-03-29T00:02:48.050Z,998.3
2018-03-29T00:04:09.669Z,998.36
2018-03-29T00:05:31.819Z,998.35
2018-03-29T00:06:52.950Z,998.42
2018-03-29T00:08:14.795Z,998.39
2018-03-29T00:09:36.235Z,998.4
2018-03-29T00:10:57.621Z,998.43
2018-03-29T00:12:19.226Z,998.44
2018-03-29T00:13:41.169Z,998.47
2018-03-29T00:15:02.250Z,998.48
2018-03-29T00:16:23.832Z,998.5
2018-03-29T00:17:45.461Z,998.5
2018-03-29T00:19:07.339Z,998.49
2018-03-29T00:20:29.560Z,998.54
2018-03-29T00:21:51.157Z,998.54
2018-03-29T00:23:12.829Z,998.56
2018-03-29T00:24:34.534Z,998.6
2018-03-29T00:25:56.129Z,998.59
2018-03-29T00:27:17.989Z,998.63
2018-03-29T00:28:39.835Z,998.65
2018-03-29T00:30:01.268Z,998.64
2018-03-29T00:31:23.148Z,998.68
2018-03-29T00:32:45.109Z,998.71
2018-03-29T00:34:07.017Z,998.72
2018-03-29T00:35:28.632Z,998.76
2018-03-29T00:36:50.788Z,998.83
2018-03-29T00:38:12.677Z,998.79
2018-03-29T00:39:34.002Z,998.83
2018-03-29T00:40:55.590Z,998.88
2018-03-29T00:42:17.298Z,998.92
2018-03-29T00:43:39.179Z,998.93
2018-03-29T00:45:01.039Z,998.9
2018-03-29T00:46:22.930Z,998.97
2018-03-29T00:47:44.634Z,998.97
2018-03-29T00:49:06.572Z,998.98
2018-03-29T00:50:28.435Z,999.02
2018-03-29T00:51:50.576Z,999.03
2018-03-29T00:53:12.763Z,999.04
2018-03-29T00:54:34.111Z,999.1
2018-03-29T00:55:56.273Z,999.09
2018-03-29T00:57:18.220Z,999.11
2018-03-29T00:58:40.340Z,999.12
2018-03-29T01:00:01.788Z,999.14
2018-03-29T01:01:23.765Z,999.18
2018-03-29T01:02:45.911Z,999.21
2018-03-29T01:04:08.025Z,999.2
2018-03-29T01:05:29.622Z,999.21
2018-03-29T01:06:51.786Z,999.19
2018-03-29T01:08:13.696Z,999.24
2018-03-29T01:09:35.592Z,999.25
2018-03-29T01:10:57.500Z,999.25
2018-03-29T01:12:19.132Z,999.26
2018-03-29T01:13:40.830Z,999.27
2018-03-29T01:15:02.960Z,999.32
2018-03-29T01:16:24.832Z,999.36
2018-03-29T01:17:47.017Z,999.35
2018-03-29T01:19:09.186Z,999.39
2018-03-29T01:20:31.313Z,999.45
2018-03-29T01:21:53.503Z,999.42
2018-03-29T01:23:15.373Z,999.37
2018-03-29T01:24:37.289Z,999.43
2018-03-29T01:25:58.900Z,999.43
2018-03-29T01:27:21.060Z,999.47
2018-03-29T01:28:42.543Z,999.48
2018-03-29T01:30:04.162Z,999.49
2018-03-29T01:31:25.781Z,999.51
2018-03-29T01:32:47.151Z,999.52
2018-03-29T01:34:08.780Z,999.53
2018-03-29T01:35:30.921Z,999.55
2018-03-29T01:36:52.644Z,999.58
2018-03-29T01:38:13.990Z,999.57
2018-03-29T01:39:35.442Z,999.61
2018-03-29T01:40:56.364Z,999.62
2018-03-29T01:42:18.250Z,999.61
2018-03-29T01:43:40.116Z,999.65
2018-03-29T01:45:01.711Z,999.66
2018-03-29T01:46:23.372Z,999.7
2018-03-29T01:47:44.699Z,999.68
2018-03-29T01:49:06.099Z,999.77
2018-03-29T01:50:27.430Z,999.76
2018-03-29T01:51:49.319Z,999.79
2018-03-29T01:53:11.190Z,999.8
2018-03-29T01:54:32.792Z,999.84
2018-03-29T01:55:54.675Z,999.83
2018-03-29T01:57:16.374Z,999.84
2018-03-29T01:58:38.491Z,999.84
2018-03-29T02:00:00.149Z,999.84
2018-03-29T02:01:21.769Z,999.83
2018-03-29T02:02:43.644Z,999.88
2018-03-29T02:04:05.360Z,999.9
2018-03-29T02:05:27.225Z,999.94
2018-03-29T02:06:49.080Z,999.98
2018-03-29T02:08:10.680Z,999.98
2018-03-29T02:09:32.373Z,999.96
2018-03-29T02:10:54.039Z,999.97
2018-03-29T02:12:15.672Z,999.97
2018-03-29T02:13:38.250Z,999.99
2018-03-29T02:15:00.375Z,999.96
2018-03-29T02:16:22.490Z,999.99
2018-03-29T02:17:43.846Z,1000.02
2018-03-29T02:19:05.742Z,1000
2018-03-29T02:20:27.416Z,999.99
2018-03-29T02:21:49.277Z,1000.06
2018-03-29T02:23:11.151Z,1000.05
2018-03-29T02:24:32.510Z,1000.09
2018-03-29T02:25:54.142Z,1000.05
2018-03-29T02:27:16.284Z,1000.07
2018-03-29T02:28:38.018Z,1000.13
2018-03-29T02:29:59.970Z,1000.12
2018-03-29T02:31:21.892Z,1000.11
2018-03-29T02:32:43.826Z,1000.15
2018-03-29T02:34:05.471Z,1000.21
2018-03-29T02:35:27.329Z,1000.22
2018-03-29T02:36:49.200Z,1000.23
2018-03-29T02:38:10.872Z,1000.26
2018-03-29T02:39:32.780Z,1000.24
2018-03-29T02:40:54.444Z,1000.24
2018-03-29T02:42:16.372Z,1000.25
2018-03-29T02:43:37.718Z,1000.28
2018-03-29T02:44:58.863Z,1000.32
2018-03-29T02:46:20.474Z,1000.27
2018-03-29T02:47:42.456Z,1000.31
2018-03-29T02:49:04.321Z,1000.33
2018-03-29T02:50:26.274Z,1000.34
2018-03-29T02:51:47.623Z,1000.33
2018-03-29T02:53:09.501Z,1000.32
2018-03-29T02:54:31.373Z,1000.34
2018-03-29T02:55:53.554Z,1000.32
2018-03-29T02:57:15.143Z,1000.32
2018-03-29T02:58:36.474Z,1000.38
2018-03-29T02:59:58.382Z,1000.39
2018-03-29T03:01:19.981Z,1000.37
2018-03-29T03:02:41.834Z,1000.41
2018-03-29T03:04:03.734Z,1000.47
2018-03-29T03:05:25.043Z,1000.44
2018-03-29T03:06:46.399Z,1000.41
2018-03-29T03:08:08.340Z,1000.45
2018-03-29T03:09:29.683Z,1000.41
2018-03-29T03:10:51.302Z,1000.48
2018-03-29T03:12:12.885Z,1000.43
2018-03-29T03:13:34.812Z,1000.48
2018-03-29T03:14:56.442Z,1000.54
2018-03-29T03:16:18.316Z,1000.54
2018-03-29T03:17:39.926Z,1000.59
2018-03-29T03:19:01.651Z,1000.59
2018-03-29T03:20:23.256Z,1000.59
2018-03-29T03:21:45.310Z,1000.55
2018-03-29T03:23:06.961Z,1000.63
2018-03-29T03:24:28.561Z,1000.66
2018-03-29T03:25:50.432Z,1000.65
2018-03-29T03:27:12.361Z,1000.67
2018-03-29T03:28:34.245Z,1000.67
2018-03-29T03:29:55.593Z,1000.69
2018-03-29T03:31:16.961Z,1000.68
2018-03-29T03:32:38.652Z,1000.77
2018-03-29T03:33:59.993Z,1000.78
2018-03-29T03:35:21.862Z,1000.87
2018-03-29T03:36:43.771Z,1000.78
2018-03-29T03:38:05.372Z,1000.88
2018-03-29T03:39:27.291Z,1000.86
2018-03-29T03:40:48.893Z,1000.96
2018-03-29T03:42:10.225Z,1000.99
2018-03-29T03:43:31.890Z,1000.94
2018-03-29T03:44:53.502Z,1000.97
2018-03-29T03:46:15.712Z,1000.94
2018-03-29T03:47:37.898Z,1001.03
2018-03-29T03:48:59.516Z,1000.99
2018-03-29T03:50:21.122Z,1001.06
2018-03-29T03:51:43.260Z,1001.1
2018-03-29T03:53:05.254Z,1001.11
2018-03-29T03:54:27.222Z,1001.16
2018-03-29T03:55:49.198Z,1001.14
2018-03-29T03:57:10.292Z,1001.21
2018-03-29T03:59:03.521Z,1001.25
2018-03-29T04:00:25.212Z,1001.25
2018-03-29T04:01:46.912Z,1001.3
2018-03-29T04:03:08.547Z,1001.28
2018-03-29T04:04:30.163Z,1001.41
2018-03-29T04:05:52.306Z,1001.42
2018-03-29T04:07:13.911Z,1001.45
2018-03-29T04:08:35.826Z,1001.44
2018-03-29T04:09:57.723Z,1001.43
2018-03-29T04:11:19.319Z,1001.44
2018-03-29T04:12:41.210Z,1001.48
2018-03-29T04:14:02.852Z,1001.53
2018-03-29T04:15:24.493Z,1001.55
2018-03-29T04:16:46.095Z,1001.55
2018-03-29T04:18:07.682Z,1001.55
2018-03-29T04:19:29.559Z,1001.5
2018-03-29T04:20:51.431Z,1001.63
2018-03-29T04:22:13.313Z,1001.62
2018-03-29T04:23:34.733Z,1001.66
2018-03-29T04:24:56.593Z,1001.69
2018-03-29T04:26:18.869Z,1001.7
2018-03-29T04:27:40.484Z,1001.73
2018-03-29T04:29:02.103Z,1001.78
2018-03-29T04:30:24.058Z,1001.73
2018-03-29T04:31:45.413Z,1001.78
2018-03-29T04:33:06.849Z,1001.8
2018-03-29T04:34:28.463Z,1001.8
2018-03-29T04:35:50.054Z,1001.85
2018-03-29T04:37:11.513Z,1001.87
2018-03-29T04:38:32.833Z,1001.85
2018-03-29T04:39:54.198Z,1001.88
2018-03-29T04:41:16.052Z,1001.89
2018-03-29T04:42:37.932Z,1001.91
2018-03-29T04:43:59.874Z,1001.96
2018-03-29T04:45:21.489Z,1001.95
2018-03-29T04:46:43.473Z,1001.96
2018-03-29T04:48:05.066Z,1001.98
2018-03-29T04:49:26.483Z,1002.02
2018-03-29T04:50:48.451Z,1002.02
2018-03-29T04:52:10.100Z,1002.03
2018-03-29T04:53:31.713Z,1001.97
2018-03-29T04:54:53.308Z,1002.01
2018-03-29T04:56:14.970Z,1002.06
2018-03-29T04:57:36.853Z,1002.04
2018-03-29T04:58:58.448Z,1002.05
2018-03-29T05:00:20.303Z,1002.11
2018-03-29T05:01:42.203Z,1002.16
2018-03-29T05:03:04.124Z,1002.16
2018-03-29T05:04:26.004Z,1002.18
2018-03-29T05:05:47.626Z,1002.18
2018-03-29T05:07:09.490Z,1002.26
2018-03-29T05:08:30.942Z,1002.2
2018-03-29T05:09:52.583Z,1002.25
2018-03-29T05:11:14.261Z,1002.21
2018-03-29T05:12:35.660Z,1002.24
2018-03-29T05:13:57.833Z,1002.27
2018-03-29T05:15:19.702Z,1002.26
2018-03-29T05:16:41.575Z,1002.29
2018-03-29T05:18:02.922Z,1002.28
2018-03-29T05:19:24.523Z,1002.35
2018-03-29T05:20:46.113Z,1002.36
2018-03-29T05:22:07.952Z,1002.43
2018-03-29T05:23:29.894Z,1002.37
2018-03-29T05:24:51.513Z,1002.39
2018-03-29T05:26:13.165Z,1002.41
2018-03-29T05:27:34.532Z,1002.39
2018-03-29T05:28:56.437Z,1002.43
2018-03-29T05:30:18.143Z,1002.43
2018-03-29T05:31:39.483Z,1002.46
2018-03-29T05:33:01.603Z,1002.48
2018-03-29T05:34:23.516Z,1002.49
2018-03-29T05:35:45.395Z,1002.51
2018-03-29T05:37:07.284Z,1002.51
2018-03-29T05:38:28.381Z,1002.54
2018-03-29T05:39:50.295Z,1002.6
2018-03-29T05:41:12.592Z,1002.55
2018-03-29T05:42:34.893Z,1002.6
2018-03-29T05:43:56.823Z,1002.66
2018-03-29T05:45:18.703Z,1002.7
2018-03-29T05:46:40.053Z,1002.68
2018-03-29T05:48:02.103Z,1002.75
2018-03-29T05:49:23.741Z,1002.76
2018-03-29T05:50:45.865Z,1002.81
2018-03-29T05:52:07.747Z,1002.81
2018-03-29T05:53:29.960Z,1002.81
2018-03-29T05:54:51.598Z,1002.82
2018-03-29T05:56:13.210Z,1002.93
2018-03-29T05:57:35.552Z,1002.91
2018-03-29T05:58:57.574Z,1002.86
2018-03-29T06:00:19.708Z,1002.9
2018-03-29T06:01:41.593Z,1002.9
2018-03-29T06:03:03.493Z,1002.86
2018-03-29T06:04:25.448Z,1002.86
2018-03-29T06:05:47.332Z,1002.9
2018-03-29T06:07:08.461Z,1002.9
2018-03-29T06:08:30.334Z,1002.95
2018-03-29T06:09:51.768Z,1003.02
2018-03-29T06:11:13.123Z,1002.96
2018-03-29T06:12:34.908Z,1003.01
2018-03-29T06:13:56.553Z,1003.01
2018-03-29T06:15:17.900Z,1003.05
2018-03-29T06:16:39.225Z,1003.06
2018-03-29T06:18:01.258Z,1003.05
2018-03-29T06:19:22.880Z,1003.06
2018-03-29T06:20:45.097Z,1003.06
2018-03-29T06:22:06.729Z,1003.04
2018-03-29T06:23:28.082Z,1003.1
2018-03-29T06:24:49.808Z,1003.08
2018-03-29T06:26:11.677Z,1003.16
2018-03-29T06:27:33.729Z,1003.19
2018-03-29T06:28:55.063Z,1003.21
2018-03-29T06:30:16.945Z,1003.23
2018-03-29T06:31:38.323Z,1003.28
2018-03-29T06:33:00.244Z,1003.24
2018-03-29T06:34:22.122Z,1003.28
2018-03-29T06:35:43.741Z,1003.32
2018-03-29T06:37:05.084Z,1003.33
2018-03-29T06:38:26.443Z,1003.33
2018-03-29T06:39:48.426Z,1003.31
2018-03-29T06:41:10.297Z,1003.36
2018-03-29T06:42:32.503Z,1003.45
2018-03-29T06:43:54.414Z,1003.46
2018-03-29T06:45:15.789Z,1003.45
2018-03-29T06:46:37.681Z,1003.47
2018-03-29T06:47:59.430Z,1003.5
2018-03-29T06:49:21.093Z,1003.57
2018-03-29T06:50:42.823Z,1003.56
2018-03-29T06:52:03.906Z,1003.59
2018-03-29T06:53:25.804Z,1003.62
2018-03-29T06:54:47.576Z,1003.63
2018-03-29T06:56:09.201Z,1003.59
2018-03-29T06:57:30.555Z,1003.65
2018-03-29T06:58:52.683Z,1003.72
2018-03-29T07:00:14.648Z,1003.66
2018-03-29T07:01:36.530Z,1003.74
2018-03-29T07:02:58.239Z,1003.75
2018-03-29T07:04:19.798Z,1003.76
2018-03-29T07:05:41.445Z,1003.78
2018-03-29T07:07:03.086Z,1003.76
2018-03-29T07:08:24.434Z,1003.83
2018-03-29T07:09:46.306Z,1003.85
2018-03-29T07:11:07.923Z,1003.8
2018-03-29T07:12:29.551Z,1003.88
2018-03-29T07:13:51.382Z,1003.86
2018-03-29T07:15:13.053Z,1003.93
2018-03-29T07:16:34.401Z,1003.92
2018-03-29T07:17:56.348Z,1003.89
2018-03-29T07:19:18.212Z,1003.86
2018-03-29T07:20:40.196Z,1003.82
2018-03-29T07:22:02.138Z,1003.81
2018-03-29T07:23:24.076Z,1003.82
2018-03-29T07:24:45.555Z,1003.88
2018-03-29T07:26:07.421Z,1003.88
2018-03-29T07:27:29.343Z,1003.98
2018-03-29T07:28:50.954Z,1003.99
2018-03-29T07:30:13.152Z,1003.98
2018-03-29T07:31:34.823Z,1003.94
2018-03-29T07:32:56.690Z,1003.91
2018-03-29T07:34:18.293Z,1003.93
2018-03-29T07:35:40.166Z,1003.96
2018-03-29T07:37:02.169Z,1003.93
2018-03-29T07:38:23.822Z,1003.96
2018-03-29T07:39:45.743Z,1003.91
2018-03-29T07:41:07.706Z,1003.94
2018-03-29T07:42:29.611Z,1003.92
2018-03-29T07:43:51.767Z,1003.96
2018-03-29T07:45:13.752Z,1003.98
2018-03-29T07:46:35.897Z,1004
2018-03-29T07:47:58.131Z,1003.95
2018-03-29T07:49:19.461Z,1004.01
2018-03-29T07:50:41.602Z,1004.03
2018-03-29T07:52:03.257Z,1004.02
2018-03-29T07:53:24.623Z,1004.03
2018-03-29T07:54:46.249Z,1003.98
2018-03-29T07:56:08.256Z,1004.03
2018-03-29T07:57:29.615Z,1004.04
2018-03-29T07:58:51.299Z,1004.05
2018-03-29T08:00:12.922Z,1004.03
2018-03-29T08:01:34.100Z,1004.04
2018-03-29T08:02:55.429Z,1004.07
2018-03-29T08:04:17.322Z,1004.03
2018-03-29T08:05:38.801Z,1004.06
2018-03-29T08:07:00.672Z,1004.08
2018-03-29T08:08:21.860Z,1004.12
2018-03-29T08:09:43.543Z,1004.11
2018-03-29T08:11:04.896Z,1004.16
2018-03-29T08:12:26.512Z,1004.14
2018-03-29T08:13:48.673Z,1004.19
2018-03-29T08:15:10.614Z,1004.2
2018-03-29T08:16:32.224Z,1004.2
2018-03-29T08:17:54.270Z,1004.18
2018-03-29T08:19:16.152Z,1004.15
2018-03-29T08:20:37.811Z,1004.18
2018-03-29T08:21:59.413Z,1004.13
2018-03-29T08:23:21.002Z,1004.23
2018-03-29T08:24:42.890Z,1004.2
2018-03-29T08:26:04.749Z,1004.13
2018-03-29T08:27:26.906Z,1004.13
2018-03-29T08:28:48.535Z,1004.22
2018-03-29T08:30:10.562Z,1004.27
2018-03-29T08:31:32.806Z,1004.25
2018-03-29T08:32:54.723Z,1004.2
2018-03-29T08:34:16.814Z,1004.29
2018-03-29T08:35:38.460Z,1004.31
2018-03-29T08:37:00.627Z,1004.24
2018-03-29T08:38:22.841Z,1004.23
2018-03-29T08:39:44.451Z,1004.34
2018-03-29T08:41:06.092Z,1004.3
2018-03-29T08:42:28.006Z,1004.32
2018-03-29T08:43:50.002Z,1004.31
2018-03-29T08:45:11.907Z,1004.29
2018-03-29T08:46:33.870Z,1004.28
2018-03-29T08:47:55.304Z,1004.39
2018-03-29T08:49:17.060Z,1004.45
2018-03-29T08:50:38.772Z,1004.48
2018-03-29T08:52:00.379Z,1004.41
2018-03-29T08:53:22.314Z,1004.48
2018-03-29T08:54:44.202Z,1004.48
2018-03-29T08:56:05.891Z,1004.4
2018-03-29T08:57:27.768Z,1004.4
2018-03-29T08:58:49.682Z,1004.42
2018-03-29T09:00:11.813Z,1004.5
2018-03-29T09:01:33.743Z,1004.53
2018-03-29T09:02:55.631Z,1004.52
2018-03-29T09:04:17.263Z,1004.63
2018-03-29T09:05:39.143Z,1004.59
2018-03-29T09:07:00.767Z,1004.63
2018-03-29T09:08:22.692Z,1004.58
2018-03-29T09:09:44.580Z,1004.52
2018-03-29T09:11:05.994Z,1004.63
2018-03-29T09:12:28.191Z,1004.6
2018-03-29T09:13:50.369Z,1004.59
2018-03-29T09:15:12.691Z,1004.63
2018-03-29T09:16:34.399Z,1004.64
2018-03-29T09:17:56.454Z,1004.62
2018-03-29T09:19:18.101Z,1004.7
2018-03-29T09:20:40.340Z,1004.66
2018-03-29T09:22:02.009Z,1004.75
2018-03-29T09:23:23.651Z,1004.76
2018-03-29T09:24:45.540Z,1004.81
2018-03-29T09:26:07.178Z,1004.79
2018-03-29T09:27:29.351Z,1004.8
2018-03-29T09:28:51.255Z,1004.77
2018-03-29T09:30:12.079Z,1004.8
2018-03-29T09:31:34.079Z,1004.85
2018-03-29T09:32:55.711Z,1004.86
2018-03-29T09:34:17.346Z,1004.82
2018-03-29T09:35:39.326Z,1004.79
2018-03-29T09:37:01.313Z,1004.84
2018-03-29T09:38:22.978Z,1004.85
2018-03-29T09:39:45.279Z,1004.9
2018-03-29T09:41:07.138Z,1004.92
2018-03-29T09:42:29.152Z,1004.95
2018-03-29T09:43:51.603Z,1004.94
2018-03-29T09:45:13.588Z,1004.94
2018-03-29T09:46:35.228Z,1004.94
2018-03-29T09:47:56.894Z,1005
2018-03-29T09:49:18.550Z,1004.99
2018-03-29T09:50:40.510Z,1005
2018-03-29T09:52:02.533Z,1005.03
2018-03-29T09:53:23.998Z,1004.99
2018-03-29T09:54:45.589Z,1005.03
2018-03-29T09:56:07.239Z,1005.01
2018-03-29T09:57:29.965Z,1005.01
2018-03-29T09:58:52.111Z,1005.09
2018-03-29T10:00:14.040Z,1005.03
2018-03-29T10:01:35.416Z,1005
2018-03-29T10:02:57.095Z,1005.06
2018-03-29T10:04:19.261Z,1005.09
2018-03-29T10:05:41.466Z,1005.17
2018-03-29T10:07:02.955Z,1005.13
2018-03-29T10:08:25.198Z,1005.08
2018-03-29T10:09:47.115Z,1005.13
2018-03-29T10:11:09.009Z,1005.23
2018-03-29T10:12:30.379Z,1005.13
2018-03-29T10:13:52.303Z,1005.28
2018-03-29T10:15:13.740Z,1005.21
2018-03-29T10:16:35.645Z,1005.24
2018-03-29T10:17:57.546Z,1005.28
2018-03-29T10:19:19.186Z,1005.36
2018-03-29T10:20:40.840Z,1005.4
2018-03-29T10:22:02.833Z,1005.36
2018-03-29T10:23:24.996Z,1005.35
2018-03-29T10:24:46.346Z,1005.35
2018-03-29T10:26:08.239Z,1005.39
2018-03-29T10:27:30.397Z,1005.45
2018-03-29T10:28:52.668Z,1005.41
2018-03-29T10:30:14.080Z,1005.35
2018-03-29T10:31:36.307Z,1005.46
2018-03-29T10:32:58.249Z,1005.44
2018-03-29T10:34:20.367Z,1005.52
2018-03-29T10:35:42.057Z,1005.47
2018-03-29T10:37:04.251Z,1005.43
2018-03-29T10:38:26.150Z,1005.43
2018-03-29T10:39:48.424Z,1005.49
2018-03-29T10:41:10.137Z,1005.39
2018-03-29T10:42:31.972Z,1005.49
2018-03-29T10:43:53.970Z,1005.45
2018-03-29T10:45:15.847Z,1005.51
2018-03-29T10:46:37.594Z,1005.47
2018-03-29T10:47:59.287Z,1005.46
2018-03-29T10:49:21.542Z,1005.42
2018-03-29T10:50:43.511Z,1005.45
2018-03-29T10:52:05.148Z,1005.46
2018-03-29T10:53:27.046Z,1005.5
2018-03-29T10:54:48.784Z,1005.57
2018-03-29T10:56:10.241Z,1005.59
2018-03-29T10:57:31.842Z,1005.59
2018-03-29T10:58:53.462Z,1005.59
2018-03-29T11:00:15.093Z,1005.58
2018-03-29T11:01:36.996Z,1005.54
2018-03-29T11:02:59.156Z,1005.52
2018-03-29T11:04:21.171Z,1005.48
2018-03-29T11:05:43.498Z,1005.52
2018-03-29T11:07:05.269Z,1005.47
2018-03-29T11:08:27.180Z,1005.47
2018-03-29T11:09:49.093Z,1005.49
2018-03-29T11:11:10.982Z,1005.54
2018-03-29T11:12:33.236Z,1005.52
2018-03-29T11:13:55.385Z,1005.52
2018-03-29T11:15:17.268Z,1005.59
2018-03-29T11:16:38.912Z,1005.57
2018-03-29T11:18:00.283Z,1005.67
2018-03-29T11:19:21.917Z,1005.6
2018-03-29T11:20:43.561Z,1005.66
2018-03-29T11:22:05.188Z,1005.57
2018-03-29T11:23:26.558Z,1005.62
2018-03-29T11:24:48.178Z,1005.61
2018-03-29T11:26:09.950Z,1005.62
2018-03-29T11:27:31.910Z,1005.65
2018-03-29T11:28:54.116Z,1005.61
2018-03-29T11:30:15.718Z,1005.7
2018-03-29T11:31:37.857Z,1005.57
2018-03-29T11:33:00.028Z,1005.6
2018-03-29T11:34:22.247Z,1005.58
2018-03-29T11:35:43.856Z,1005.59
2018-03-29T11:37:05.492Z,1005.59
2018-03-29T11:38:27.126Z,1005.6
2018-03-29T11:39:48.897Z,1005.6
2018-03-29T11:41:10.520Z,1005.78
2018-03-29T11:42:32.694Z,1005.78
2018-03-29T11:43:54.343Z,1005.85
2018-03-29T11:45:16.352Z,1005.86
2018-03-29T11:46:38.239Z,1005.82
2018-03-29T11:48:00.133Z,1005.91
2018-03-29T11:49:22.276Z,1005.92
2018-03-29T11:50:44.182Z,1005.94
2018-03-29T11:52:06.134Z,1006.07
2018-03-29T11:53:28.089Z,1005.98
2018-03-29T11:54:50.261Z,1005.96
2018-03-29T11:56:12.580Z,1005.91
2018-03-29T11:57:34.724Z,1005.71
2018-03-29T11:58:56.618Z,1005.96
2018-03-29T12:00:18.410Z,1005.87
2018-03-29T12:01:39.985Z,1005.97
2018-03-29T12:03:01.335Z,1005.86
2018-03-29T12:04:23.638Z,1005.9
2018-03-29T12:05:45.066Z,1005.84
2018-03-29T12:07:07.039Z,1005.82
2018-03-29T12:08:28.393Z,1005.87
2018-03-29T12:09:50.286Z,1005.93
2018-03-29T12:11:12.191Z,1006.03
2018-03-29T12:12:34.463Z,1006.03
2018-03-29T12:13:56.404Z,1006.04
2018-03-29T12:15:18.307Z,1006.01
2018-03-29T12:16:40.222Z,1005.92
2018-03-29T12:18:02.401Z,1005.94
2018-03-29T12:19:24.565Z,1005.91
2018-03-29T12:20:46.616Z,1005.87
2018-03-29T12:22:08.250Z,1005.81
2018-03-29T12:23:30.148Z,1005.85
2018-03-29T12:24:52.277Z,1005.78
2018-03-29T12:26:13.977Z,1005.76
2018-03-29T12:27:36.150Z,1005.76
2018-03-29T12:28:58.188Z,1005.82
2018-03-29T12:30:19.942Z,1005.89
2018-03-29T12:31:42.102Z,1005.92
2018-03-29T12:33:04.270Z,1005.93
2018-03-29T12:34:26.450Z,1005.89
2018-03-29T12:35:48.315Z,1005.86
2018-03-29T12:37:10.204Z,1005.91
2018-03-29T12:38:32.077Z,1005.91
2018-03-29T12:39:53.690Z,1005.97
2018-03-29T12:41:15.087Z,1005.96
2018-03-29T12:42:36.715Z,1005.93
2018-03-29T12:43:58.106Z,1005.94
2018-03-29T12:45:20.106Z,1005.96
2018-03-29T12:46:41.761Z,1005.99
2018-03-29T12:48:03.846Z,1006.09
2018-03-29T12:49:25.519Z,1005.99
2018-03-29T12:50:47.161Z,1006.11
2018-03-29T12:52:09.483Z,1006.14
2018-03-29T12:53:30.844Z,1006.18
2018-03-29T12:54:53.200Z,1006.23
2018-03-29T12:56:15.100Z,1006.19
2018-03-29T12:57:37.011Z,1006.13
2018-03-29T12:58:58.881Z,1006.14
2018-03-29T13:00:21.168Z,1006.14
2018-03-29T13:01:43.099Z,1006.12
2018-03-29T13:03:05.092Z,1006.08
2018-03-29T13:04:26.974Z,1006.07
2018-03-29T13:05:48.620Z,1006.04
2018-03-29T13:07:10.241Z,1006.07
2018-03-29T13:08:32.140Z,1006.03
2018-03-29T13:09:53.240Z,1006.02
2018-03-29T13:11:15.147Z,1006.03
2018-03-29T13:12:36.765Z,1006.03
2018-03-29T13:13:58.401Z,1006.07
2018-03-29T13:15:20.551Z,1006.07
2018-03-29T13:16:42.735Z,1006.01
2018-03-29T13:18:04.602Z,1006.04
2018-03-29T13:19:26.459Z,1006
2018-03-29T13:20:48.597Z,1006.06
2018-03-29T13:22:10.748Z,1006.09
2018-03-29T13:23:33.012Z,1006.02
2018-03-29T13:24:54.623Z,1005.98
2018-03-29T13:26:16.368Z,1005.93
2018-03-29T13:27:38.521Z,1005.89
2018-03-29T13:29:00.424Z,1005.9
2018-03-29T13:30:22.606Z,1005.89
2018-03-29T13:31:44.594Z,1005.88
2018-03-29T13:33:06.857Z,1005.91
2018-03-29T13:34:29.002Z,1005.89
2018-03-29T13:35:51.180Z,1005.91
2018-03-29T13:37:13.152Z,1005.88
2018-03-29T13:38:35.063Z,1005.89
2018-03-29T13:39:56.667Z,1005.87
2018-03-29T13:41:18.377Z,1005.96
2018-03-29T13:42:40.022Z,1005.92
2018-03-29T13:44:02.005Z,1005.87
2018-03-29T13:45:23.653Z,1005.95
2018-03-29T13:46:45.431Z,1005.97
2018-03-29T13:48:07.399Z,1006.02
2018-03-29T13:49:29.019Z,1005.97
2018-03-29T13:50:51.242Z,1005.98
2018-03-29T13:52:12.608Z,1005.97
2018-03-29T13:53:34.262Z,1005.99
2018-03-29T13:54:56.216Z,1006.03
2018-03-29T13:56:18.382Z,1006
2018-03-29T13:57:39.862Z,1006.02
2018-03-29T13:59:02.040Z,1006.1
2018-03-29T14:00:23.123Z,1006.06
2018-03-29T14:01:45.094Z,1006.14
2018-03-29T14:03:06.720Z,1006.22
2018-03-29T14:04:28.603Z,1006.06
2018-03-29T14:05:50.217Z,1006.07
2018-03-29T14:07:12.111Z,1006.08
2018-03-29T14:08:33.771Z,1006.05
2018-03-29T14:09:55.730Z,1006.02
2018-03-29T14:11:17.990Z,1006.02
2018-03-29T14:12:39.982Z,1005.97
2018-03-29T14:14:01.870Z,1005.97
2018-03-29T14:15:23.770Z,1006.02
2018-03-29T14:16:45.452Z,1005.96
2018-03-29T14:18:07.654Z,1005.95
2018-03-29T14:19:29.673Z,1005.97
2018-03-29T14:20:51.609Z,1005.92
2018-03-29T14:22:13.258Z,1005.97
2018-03-29T14:23:35.053Z,1005.96
2018-03-29T14:24:56.696Z,1005.89
2018-03-29T14:26:18.843Z,1005.97
2018-03-29T14:27:41.014Z,1006.01
2018-03-29T14:29:02.841Z,1005.98
2018-03-29T14:30:24.743Z,1006.04
2018-03-29T14:31:46.654Z,1006.01
2018-03-29T14:33:08.039Z,1006.04
2018-03-29T14:34:29.474Z,1005.99
2018-03-29T14:35:51.857Z,1006.01
2018-03-29T14:37:14.052Z,1006.03
2018-03-29T14:38:35.774Z,1006.02
2018-03-29T14:39:57.452Z,1006.04
2018-03-29T14:41:19.383Z,1006.01
2018-03-29T14:42:41.933Z,1005.97
2018-03-29T14:44:03.842Z,1005.93
2018-03-29T14:45:25.819Z,1005.96
2018-03-29T14:46:47.766Z,1005.96
2018-03-29T14:48:09.767Z,1005.94
2018-03-29T14:49:31.663Z,1006
2018-03-29T14:50:53.391Z,1006.02
2018-03-29T14:52:15.344Z,1006.05
2018-03-29T14:53:37.235Z,1006.06
2018-03-29T14:54:59.146Z,1006.12
2018-03-29T14:56:21.237Z,1006.1
2018-03-29T14:57:43.438Z,1006.12
2018-03-29T14:59:05.314Z,1006.12
2018-03-29T15:00:27.485Z,1006.12
2018-03-29T15:01:49.386Z,1006.14
2018-03-29T15:03:11.292Z,1006.16
2018-03-29T15:04:32.674Z,1006.13
2018-03-29T15:05:54.644Z,1006.16
2018-03-29T15:07:16.802Z,1006.17
2018-03-29T15:08:38.720Z,1006.15
2018-03-29T15:10:00.718Z,1006.15
2018-03-29T15:11:22.613Z,1006.14
2018-03-29T15:12:44.882Z,1006.18
2018-03-29T15:14:06.533Z,1006.19
2018-03-29T15:15:28.447Z,1006.18
2018-03-29T15:16:50.324Z,1006.24
2018-03-29T15:18:11.699Z,1006.23
2018-03-29T15:19:33.608Z,1006.25
2018-03-29T15:20:55.017Z,1006.26
2018-03-29T15:22:17.169Z,1006.23
2018-03-29T15:23:38.825Z,1006.26
2018-03-29T15:25:00.303Z,1006.29
2018-03-29T15:26:22.248Z,1006.32
2018-03-29T15:27:44.363Z,1006.29
2018-03-29T15:29:06.409Z,1006.32
2018-03-29T15:30:27.794Z,1006.32
2018-03-29T15:31:49.462Z,1006.37
2018-03-29T15:33:11.384Z,1006.33
2018-03-29T15:34:33.536Z,1006.35
2018-03-29T15:35:55.631Z,1006.38
2018-03-29T15:37:17.619Z,1006.4
2018-03-29T15:38:39.662Z,1006.37
2018-03-29T15:40:01.945Z,1006.38
2018-03-29T15:41:23.305Z,1006.38
2018-03-29T15:42:44.967Z,1006.4
2018-03-29T15:44:06.867Z,1006.4
2018-03-29T15:45:29.024Z,1006.42
2018-03-29T15:46:50.924Z,1006.42
2018-03-29T15:48:13.074Z,1006.44
2018-03-29T15:49:35.235Z,1006.45
2018-03-29T15:50:56.975Z,1006.48
2018-03-29T15:52:19.164Z,1006.49
2018-03-29T15:53:41.459Z,1006.47
2018-03-29T15:55:03.121Z,1006.48
2018-03-29T15:56:25.133Z,1006.5
2018-03-29T15:57:47.146Z,1006.52
2018-03-29T15:59:09.077Z,1006.47
2018-03-29T16:00:30.705Z,1006.51
2018-03-29T16:01:52.673Z,1006.51
2018-03-29T16:03:14.574Z,1006.53
2018-03-29T16:04:36.472Z,1006.55
2018-03-29T16:05:58.506Z,1006.56
2018-03-29T16:07:20.628Z,1006.56
2018-03-29T16:08:42.243Z,1006.51
2018-03-29T16:10:04.130Z,1006.53
2018-03-29T16:11:26.192Z,1006.49
2018-03-29T16:12:48.353Z,1006.48
2018-03-29T16:14:10.274Z,1006.52
2018-03-29T16:15:32.608Z,1006.43
2018-03-29T16:16:54.787Z,1006.41
2018-03-29T16:18:16.971Z,1006.41
2018-03-29T16:19:39.000Z,1006.41
2018-03-29T16:21:01.158Z,1006.44
2018-03-29T16:22:23.303Z,1006.42
2018-03-29T16:23:45.403Z,1006.51
2018-03-29T16:25:07.541Z,1006.5
2018-03-29T16:26:28.935Z,1006.53
2018-03-29T16:27:50.840Z,1006.58
2018-03-29T16:29:12.742Z,1006.62
2018-03-29T16:30:34.088Z,1006.63
2018-03-29T16:31:56.003Z,1006.62
2018-03-29T16:33:17.242Z,1006.61
2018-03-29T16:34:39.267Z,1006.62
2018-03-29T16:36:01.231Z,1006.66
2018-03-29T16:37:22.977Z,1006.66